This is the latest recevied weather packets stored in our database for station/object KGRR-WX. If no packets are shown the sender has not sent any weather packets the latest 10 day(s).
| Time | Temp. | Humidity | Pressure | Rain* | Wind** | Luminosity | Snow |
|---|---|---|---|---|---|---|---|
| 1788150610 | 69° F | 83% | 740.5 mmHg | 0 in | - | - | - |
| 1788149704 | 69° F | 83% | 740.5 mmHg | 0 in | - | - | - |
| 1788148810 | 69° F | 83% | 740.5 mmHg | 0 in | - | - | - |
| 1788147905 | 69° F | 83% | 739.8 mmHg | 0 in | - | - | - |
| 1788147010 | 70° F | 79% | 739.8 mmHg | 0 in | - | - | - |
| 1788146110 | 70° F | 79% | 739.8 mmHg | 0 in | - | - | - |
| 1788145210 | 70° F | 79% | 739.8 mmHg | 0 in | - | - | - |
| 1788144306 | 71° F | 80% | 739.9 mmHg | 0 in | - | - | - |
| 1788143410 | 71° F | 80% | 740.2 mmHg | 0 in | - | - | - |
| 1788142509 | 70° F | 80% | 740.2 mmHg | 0 in | - | - | - |
| 1788141610 | 71° F | 80% | 740.2 mmHg | 0 in | - | - | - |
| 1788140710 | 71° F | 85% | 739.7 mmHg | 0 in | - | - | - |
| 1788139809 | 71° F | 85% | 739.7 mmHg | 0 in | - | - | - |
| 1788138937 | 71° F | 85% | 739.7 mmHg | 0 in | - | - | - |
| 1788138005 | 72° F | 85% | 739.7 mmHg | 0 in | - | - | - |
| 1788137109 | 72° F | 78% | 739.9 mmHg | 0 in | - | - | - |
| 1788136209 | 73° F | 77% | 740 mmHg | 0 in | - | - | - |
| 1788135309 | 74° F | 77% | 740 mmHg | 0 in | - | - | - |
| 1788134410 | 74° F | 77% | 740 mmHg | 0 in | - | - | - |
| 1788133509 | 75° F | 71% | 740.1 mmHg | 0 in | - | - | - |
| 1788132609 | 76° F | 68% | 740 mmHg | 0 in | - | - | - |
| 1788131706 | 77° F | 68% | 740 mmHg | 0 in | - | - | - |
| 1788130809 | 77° F | 68% | 740 mmHg | 0 in | - | - | - |
| 1788129909 | 78° F | 61% | 740.5 mmHg | 0 in | - | - | - |
| 1788129010 | 74° F | 63% | 740.6 mmHg | 0 in | - | - | - |
* Rain latest hour (hover to see other rain measurements)
** Current wind speed in m/s (hover to see current wind gust speed)